Time;durP1;ratioP1;P1;durP2;ratioP2;P2;SDS_P1;SDS_P2;PMS_P1;PMS_P2;Temp;Humidity;BMP_temperature;BMP_pressure;BME280_temperature;BME280_humidity;BME280_pressure;Samples;Min_cycle;Max_cycle;Signal;HPM_P1;HPM_P2
2022/11/16 00:01:17;;;;;;;32.90;19.80;;;;;;;17.02;44.74;100589.60;101887;1332;61399;-82
2022/11/16 00:03:43;;;;;;;33.40;19.40;;;;;;;17.01;44.71;100587.84;102016;1327;61773;-82
2022/11/16 00:06:09;;;;;;;31.40;17.70;;;;;;;17.02;44.82;100584.98;101960;1328;61297;-82
2022/11/16 00:08:36;;;;;;;34.60;19.60;;;;;;;17.02;44.78;100582.33;101852;1332;73632;-82
2022/11/16 00:11:11;;;;;;;33.30;19.20;;;;;;;17.02;44.71;100578.74;101925;1330;74601;-82
2022/11/16 00:13:37;;;;;;;34.90;19.20;;;;;;;17.01;44.66;100580.01;101777;1339;61357;-82
2022/11/16 00:16:03;;;;;;;32.80;18.90;;;;;;;17.02;44.69;100575.20;101801;1338;61437;-82
2022/11/16 00:18:29;;;;;;;37.10;19.40;;;;;;;17.02;44.68;100569.68;101789;1338;61220;-82
2022/11/16 00:20:54;;;;;;;31.40;19.80;;;;;;;17.01;44.76;100566.16;101804;1331;61445;-82
2022/11/16 00:23:20;;;;;;;32.30;19.20;;;;;;;17.02;44.76;100560.42;101791;1331;61542;-82
2022/11/16 00:25:45;;;;;;;33.70;18.50;;;;;;;17.02;44.79;100560.45;101879;1337;61357;-82
2022/11/16 00:28:11;;;;;;;34.20;19.00;;;;;;;17.02;44.74;100554.77;101787;1338;61245;-81
2022/11/16 00:30:37;;;;;;;32.20;18.40;;;;;;;17.02;44.74;100555.64;101804;1332;61370;-81
2022/11/16 00:33:04;;;;;;;33.10;18.70;;;;;;;17.02;44.75;100552.09;101793;1331;61411;-81
2022/11/16 00:35:31;;;;;;;33.30;19.60;;;;;;;17.02;44.69;100549.59;101799;1339;60087;-82
2022/11/16 00:37:56;;;;;;;33.10;19.70;;;;;;;17.02;44.79;100549.56;101795;1333;61322;-81
2022/11/16 00:40:48;;;;;;;31.20;18.90;;;;;;;17.02;44.77;100549.23;101784;1337;61469;-81
2022/11/16 00:43:14;;;;;;;32.50;18.70;;;;;;;17.01;44.63;100549.61;101681;1342;74643;-82
2022/11/16 00:45:39;;;;;;;32.60;18.90;;;;;;;17.02;44.69;100552.27;101822;1339;61677;-82
2022/11/16 00:48:05;;;;;;;34.60;19.90;;;;;;;17.02;44.67;100548.33;101769;1339;61384;-81
2022/11/16 00:50:30;;;;;;;32.00;18.40;;;;;;;17.02;44.70;100541.77;101799;1332;61337;-82
2022/11/16 00:52:56;;;;;;;31.90;18.00;;;;;;;17.02;44.59;100534.64;101742;1335;61346;-82
2022/11/16 00:55:21;;;;;;;32.00;18.60;;;;;;;17.02;44.69;100534.12;101711;1332;75513;-82
2022/11/16 00:57:47;;;;;;;30.10;18.30;;;;;;;17.02;44.69;100526.82;101704;1331;61362;-82
2022/11/16 01:00:13;;;;;;;32.20;17.80;;;;;;;17.02;44.75;100519.38;101716;1339;61754;-81
2022/11/16 01:02:39;;;;;;;37.30;19.60;;;;;;;17.02;44.60;100514.75;101734;1340;61406;-82
2022/11/16 01:05:06;;;;;;;31.90;18.80;;;;;;;17.01;44.52;100512.45;101717;1339;61583;-82
2022/11/16 01:07:34;;;;;;;32.30;18.70;;;;;;;17.02;44.59;100507.46;101709;1339;61315;-82
2022/11/16 01:09:59;;;;;;;33.40;18.80;;;;;;;17.02;44.64;100502.13;101716;1332;61431;-82
2022/11/16 01:12:25;;;;;;;34.80;19.60;;;;;;;17.02;44.61;100495.39;101693;1340;61301;-82
2022/11/16 01:14:51;;;;;;;34.20;18.30;;;;;;;17.01;44.69;100492.36;101747;1333;61776;-82
2022/11/16 01:17:16;;;;;;;35.60;19.30;;;;;;;17.02;44.64;100486.65;101741;1338;61825;-81
2022/11/16 01:19:42;;;;;;;32.70;18.40;;;;;;;17.01;44.65;100479.93;101719;1332;61268;-81
2022/11/16 01:22:07;;;;;;;34.90;19.90;;;;;;;17.02;44.63;100478.83;102041;1328;61770;-81
2022/11/16 01:24:33;;;;;;;36.60;18.90;;;;;;;17.02;44.61;100475.46;101834;1334;61272;-80
2022/11/16 01:26:58;;;;;;;33.80;18.60;;;;;;;17.02;44.83;100470.85;101822;1329;61363;-81
2022/11/16 01:29:24;;;;;;;34.10;18.50;;;;;;;17.01;44.65;100471.02;101847;1329;61480;-81
2022/11/16 01:31:50;;;;;;;33.00;18.70;;;;;;;17.01;44.61;100471.55;101854;1336;61397;-81
2022/11/16 01:34:15;;;;;;;33.30;18.60;;;;;;;17.01;44.61;100468.02;101934;1328;61351;-82
2022/11/16 01:36:41;;;;;;;36.40;19.30;;;;;;;17.01;44.58;100461.42;102021;1326;61318;-82
2022/11/16 01:39:07;;;;;;;33.10;18.10;;;;;;;17.02;44.52;100464.09;101903;1332;61287;-81
2022/11/16 01:41:33;;;;;;;34.70;19.30;;;;;;;17.01;44.64;100464.33;101972;1326;61401;-81
2022/11/16 01:44:02;;;;;;;36.20;19.10;;;;;;;17.01;44.57;100454.90;101891;1331;61380;-81
2022/11/16 01:46:28;;;;;;;36.10;19.40;;;;;;;17.01;44.74;100453.14;101901;1337;61395;-82
2022/11/16 01:49:05;;;;;;;33.90;19.20;;;;;;;17.00;44.65;100452.05;101760;1337;61568;-82
2022/11/16 01:51:31;;;;;;;35.40;19.40;;;;;;;17.00;44.55;100455.45;101792;1331;75501;-82
2022/11/16 01:53:57;;;;;;;36.70;18.50;;;;;;;17.01;44.70;100454.88;101778;1333;61411;-82
2022/11/16 01:56:23;;;;;;;33.70;18.60;;;;;;;17.01;44.67;100453.11;101782;1334;61298;-83
2022/11/16 01:58:48;;;;;;;37.10;20.10;;;;;;;17.01;44.59;100454.33;101751;1332;61356;-82
2022/11/16 02:01:14;;;;;;;38.00;19.80;;;;;;;17.01;44.59;100451.33;101752;1339;61471;-82
2022/11/16 02:03:39;;;;;;;38.40;19.20;;;;;;;17.01;44.61;100446.34;101717;1337;61447;-83
2022/11/16 02:06:27;;;;;;;34.10;18.80;;;;;;;17.01;44.68;100446.70;101765;1333;62433;-82
2022/11/16 02:12:48;;;;;;;34.90;18.90;;;;;;;17.00;44.60;100438.39;101790;1331;72514;-81
2022/11/16 02:15:25;;;;;;;39.10;19.10;;;;;;;17.00;44.61;100439.33;101588;1335;74635;-82
2022/11/16 02:17:57;;;;;;;38.60;19.90;;;;;;;17.00;44.63;100436.65;101570;1341;61164;-82
2022/11/16 02:20:33;;;;;;;35.70;19.20;;;;;;;17.00;44.60;100435.23;101628;1334;61232;-82
2022/11/16 02:23:23;;;;;;;36.30;19.10;;;;;;;17.00;44.63;100434.67;101667;1334;72711;-81
2022/11/16 02:26:13;;;;;;;32.90;18.60;;;;;;;16.99;44.66;100426.35;101750;1334;75693;-82
2022/11/16 02:28:44;;;;;;;35.20;19.30;;;;;;;16.99;44.64;100422.10;101685;1334;61254;-81
2022/11/16 02:31:12;;;;;;;37.60;19.70;;;;;;;16.99;44.58;100420.15;101755;1335;61233;-83
2022/11/16 02:33:38;;;;;;;35.70;19.90;;;;;;;16.99;44.73;100418.70;101661;1334;72448;-82
2022/11/16 02:36:05;;;;;;;39.20;19.60;;;;;;;17.00;44.65;100413.85;101673;1335;61380;-82
2022/11/16 02:38:33;;;;;;;38.50;20.40;;;;;;;17.00;44.57;100414.08;101733;1334;61355;-82
2022/11/16 02:41:08;;;;;;;36.20;20.20;;;;;;;17.00;44.56;100411.04;101664;1335;61317;-82
2022/11/16 02:43:35;;;;;;;34.30;18.80;;;;;;;17.00;44.63;100410.52;101672;1328;73641;-82
2022/11/16 02:46:07;;;;;;;38.90;19.50;;;;;;;17.00;44.64;100406.77;101696;1334;75599;-82
2022/11/16 02:48:38;;;;;;;37.10;19.00;;;;;;;16.99;44.64;100401.46;101752;1334;61292;-82
2022/11/16 02:51:05;;;;;;;38.90;18.70;;;;;;;17.00;44.70;100396.28;101881;1336;61406;-82
2022/11/16 02:53:32;;;;;;;34.10;18.90;;;;;;;17.00;44.63;100392.55;101843;1331;71635;-82
2022/11/16 02:55:58;;;;;;;36.80;18.90;;;;;;;16.99;44.62;100392.77;101877;1334;73729;-82
2022/11/16 02:58:24;;;;;;;35.90;18.50;;;;;;;17.00;44.65;100394.14;101852;1331;61354;-81
2022/11/16 03:01:09;;;;;;;38.40;19.70;;;;;;;17.00;44.66;100389.33;101953;1322;61366;-81
2022/11/16 03:03:50;;;;;;;35.70;18.50;;;;;;;17.00;44.61;100383.85;101913;1328;73553;-82
2022/11/16 03:06:28;;;;;;;35.00;18.40;;;;;;;17.00;44.52;100385.27;101902;1334;75555;-82
2022/11/16 03:09:03;;;;;;;36.80;19.00;;;;;;;17.00;44.61;100387.05;101911;1334;61281;-82
2022/11/16 03:14:17;;;;;;;35.90;18.60;;;;;;;16.99;44.69;100382.48;101871;1331;72673;-82
2022/11/16 03:16:45;;;;;;;38.00;20.40;;;;;;;16.99;44.60;100381.60;101866;1331;74499;-82
2022/11/16 03:19:13;;;;;;;36.50;19.20;;;;;;;17.00;44.61;100381.72;101944;1328;61159;-82
2022/11/16 03:22:10;;;;;;;39.00;20.60;;;;;;;16.99;44.59;100378.38;101867;1335;61216;-82
2022/11/16 03:24:35;;;;;;;41.10;19.70;;;;;;;16.99;44.64;100372.33;101915;1331;72696;-81
2022/11/16 03:27:38;;;;;;;38.10;20.70;;;;;;;16.99;44.57;100372.84;101897;1327;61314;-81
2022/11/16 03:30:05;;;;;;;36.90;19.50;;;;;;;16.99;44.69;100370.21;101946;1329;61297;-81
2022/11/16 03:32:55;;;;;;;42.90;21.50;;;;;;;16.99;44.80;100362.23;101909;1329;61203;-82
2022/11/16 03:35:30;;;;;;;40.20;20.40;;;;;;;16.99;44.64;100362.90;101968;1329;72484;-82
2022/11/16 03:37:57;;;;;;;42.30;21.50;;;;;;;16.99;44.67;100362.02;101895;1322;75506;-82
2022/11/16 03:40:26;;;;;;;47.30;22.20;;;;;;;17.00;44.67;100353.63;102040;1325;61134;-82
2022/11/16 03:42:52;;;;;;;;;;;;;;;16.99;44.59;100353.48;102067;1328;61212;-82
2022/11/16 03:45:17;;;;;;;45.20;21.40;;;;;;;16.97;44.69;100343.47;101930;1328;61366;-82
2022/11/16 03:47:43;;;;;;;43.50;21.30;;;;;;;16.98;44.64;100340.59;101852;1334;61883;-82
2022/11/16 03:50:09;;;;;;;38.40;20.90;;;;;;;16.98;44.73;100332.56;101883;1326;62919;-82
2022/11/16 03:52:34;;;;;;;41.90;21.60;;;;;;;16.98;44.73;100327.61;101954;1327;61332;-81
2022/11/16 03:55:00;;;;;;;41.50;21.30;;;;;;;16.98;44.65;100325.84;101908;1332;61176;-81
2022/11/16 03:57:25;;;;;;;39.80;21.00;;;;;;;16.99;44.68;100319.74;101887;1332;61327;-82
2022/11/16 03:59:51;;;;;;;43.20;21.60;;;;;;;16.99;44.64;100316.35;101951;1326;61314;-81
2022/11/16 04:02:17;;;;;;;40.90;21.40;;;;;;;16.98;44.60;100313.54;101872;1330;61400;-81
2022/11/16 04:24:12;;;;;;;42.60;22.20;;;;;;;16.97;44.62;100280.73;101917;1328;61146;-83
2022/11/16 04:29:22;;;;;;;45.80;22.60;;;;;;;16.97;44.52;100276.80;101916;1331;73707;-82
2022/11/16 04:40:00;;;;;;;43.70;22.50;;;;;;;16.97;44.53;100274.14;101916;1327;73817;-82
2022/11/16 04:42:26;;;;;;;48.00;22.90;;;;;;;16.97;44.59;100276.46;101951;1335;61303;-81
2022/11/16 04:47:36;;;;;;;46.50;23.10;;;;;;;16.97;44.57;100278.96;101939;1327;61255;-82
2022/11/16 04:50:02;;;;;;;47.10;23.50;;;;;;;16.97;44.53;100280.89;101932;1332;61344;-83
2022/11/16 04:52:27;;;;;;;47.20;22.60;;;;;;;16.98;44.57;100274.65;102000;1328;61318;-82
2022/11/16 04:54:53;;;;;;;46.20;23.00;;;;;;;16.97;44.51;100276.27;101877;1329;61402;-82
2022/11/16 04:57:18;;;;;;;48.20;24.50;;;;;;;16.97;44.50;100273.42;101940;1328;61313;-82
2022/11/16 04:59:44;;;;;;;47.30;24.40;;;;;;;16.98;44.53;100269.83;101926;1331;61290;-81
2022/11/16 05:02:09;;;;;;;48.40;24.00;;;;;;;16.98;44.51;100263.98;101879;1325;61415;-81
2022/11/16 05:04:37;;;;;;;48.50;24.50;;;;;;;16.98;44.57;100262.20;101818;1328;61742;-80
2022/11/16 05:07:03;;;;;;;52.30;25.50;;;;;;;16.97;44.43;100262.75;101906;1331;61210;-81
2022/11/16 05:09:29;;;;;;;52.40;24.10;;;;;;;16.98;44.49;100261.48;101901;1329;61364;-80
2022/11/16 05:11:54;;;;;;;50.40;25.20;;;;;;;16.97;44.53;100260.97;101874;1334;61301;-82
2022/11/16 05:14:20;;;;;;;50.50;25.00;;;;;;;16.97;44.52;100261.16;101912;1331;61285;-81
2022/11/16 05:17:10;;;;;;;51.20;23.30;;;;;;;16.98;44.50;100257.20;101942;1329;61430;-82
2022/11/16 05:22:20;;;;;;;48.20;23.80;;;;;;;16.97;44.47;100262.21;101737;1339;73631;-82
2022/11/16 05:24:45;;;;;;;48.80;25.10;;;;;;;16.97;44.41;100262.98;101639;1334;61347;-82
2022/11/16 05:27:13;;;;;;;47.20;24.40;;;;;;;16.97;44.49;100261.38;101582;1326;61425;-82
2022/11/16 05:29:39;;;;;;;45.50;23.30;;;;;;;16.97;44.61;100261.73;101438;1325;61429;-82
2022/11/16 05:32:04;;;;;;;47.50;23.90;;;;;;;16.97;44.58;100261.73;101509;1338;61332;-82
2022/11/16 05:34:31;;;;;;;48.60;25.20;;;;;;;16.97;44.71;100259.39;101235;1326;61508;-82
2022/11/16 05:36:57;;;;;;;50.20;23.50;;;;;;;16.98;44.75;100255.44;101210;1327;61284;-80
2022/11/16 05:39:25;;;;;;;48.80;24.30;;;;;;;16.99;44.74;100252.51;101200;1326;61361;-83
2022/11/16 05:41:51;;;;;;;52.30;24.20;;;;;;;17.01;44.84;100248.84;101133;1323;61347;-82
2022/11/16 05:44:17;;;;;;;50.50;25.20;;;;;;;17.02;44.81;100243.59;101125;1325;61316;-83
2022/11/16 05:46:43;;;;;;;50.10;24.60;;;;;;;17.05;44.77;100250.55;101150;1326;61445;-83
2022/11/16 05:49:10;;;;;;;52.10;26.00;;;;;;;17.08;44.73;100248.39;101014;1322;61408;-83
2022/11/16 05:51:36;;;;;;;52.40;25.30;;;;;;;17.11;44.66;100245.02;100554;1326;637934;-82
2022/11/16 05:54:02;;;;;;;55.60;26.20;;;;;;;17.13;44.65;100245.75;100766;1321;65055;-82
2022/11/16 05:56:28;;;;;;;52.80;26.00;;;;;;;17.17;44.55;100244.11;100939;1319;61315;-81
2022/11/16 05:58:54;;;;;;;57.90;26.00;;;;;;;17.19;44.53;100245.92;101433;1312;61196;-80
2022/11/16 06:01:20;;;;;;;53.10;26.30;;;;;;;17.19;44.42;100253.19;101252;1319;61364;-81
2022/11/16 06:03:46;;;;;;;55.50;26.70;;;;;;;17.18;44.67;100255.58;101327;1317;72450;-80
2022/11/16 06:06:12;;;;;;;54.60;26.20;;;;;;;17.17;44.71;100258.70;101540;1318;75515;-82
2022/11/16 06:08:38;;;;;;;47.00;24.10;;;;;;;17.15;44.66;100252.40;101273;1312;61393;-82
2022/11/16 06:11:06;;;;;;;50.10;25.10;;;;;;;17.15;44.91;100253.48;101364;1323;61287;-81
2022/11/16 06:13:32;;;;;;;60.00;26.80;;;;;;;17.14;44.95;100252.81;101361;1312;61209;-82
2022/11/16 06:15:59;;;;;;;53.00;27.10;;;;;;;17.12;44.94;100244.02;101256;1316;61388;-80
2022/11/16 06:18:25;;;;;;;50.60;26.60;;;;;;;17.11;45.08;100237.88;101789;1319;61412;-81
2022/11/16 06:20:51;;;;;;;51.20;25.30;;;;;;;17.10;45.00;100244.90;101490;1317;61344;-79
2022/11/16 06:23:16;;;;;;;52.80;26.60;;;;;;;17.09;45.18;100242.44;101385;1320;60073;-81
2022/11/16 06:25:45;;;;;;;50.50;26.80;;;;;;;17.09;45.11;100237.30;101599;1312;61308;-80
2022/11/16 06:28:11;;;;;;;44.20;25.40;;;;;;;17.10;45.18;100229.23;101362;1319;61171;-81
2022/11/16 06:30:38;;;;;;;50.60;24.30;;;;;;;17.12;45.20;100226.30;101349;1319;61323;-81
2022/11/16 06:33:04;;;;;;;52.90;26.00;;;;;;;17.14;45.25;100218.00;101499;1320;61334;-80
2022/11/16 06:35:29;;;;;;;46.20;24.00;;;;;;;17.15;45.21;100215.73;101523;1316;62846;-80
2022/11/16 06:37:56;;;;;;;46.70;23.90;;;;;;;17.18;45.35;100212.54;101475;1320;61738;-81
2022/11/16 06:40:22;;;;;;;48.30;24.50;;;;;;;17.20;45.19;100215.30;101370;1312;61330;-80
2022/11/16 06:42:47;;;;;;;48.80;25.50;;;;;;;17.21;45.20;100212.33;101259;1316;61572;-80
2022/11/16 06:45:13;;;;;;;45.80;23.80;;;;;;;17.17;45.11;100214.60;101327;1320;61510;-81
2022/11/16 06:47:40;;;;;;;46.90;24.10;;;;;;;17.16;45.24;100222.14;101244;1315;59474;-81
2022/11/16 06:50:06;;;;;;;45.70;23.70;;;;;;;17.16;45.29;100219.41;101442;1316;61467;-80
2022/11/16 06:52:31;;;;;;;44.80;22.50;;;;;;;17.18;45.29;100217.55;101179;1320;61459;-81
2022/11/16 06:54:57;;;;;;;52.70;23.50;;;;;;;17.21;45.32;100213.27;101173;1316;61286;-81
2022/11/16 06:57:24;;;;;;;45.80;23.10;;;;;;;17.19;45.30;100214.05;101149;1319;61369;-82
2022/11/16 06:59:49;;;;;;;53.50;21.80;;;;;;;17.17;45.52;100204.44;101250;1312;59280;-81
2022/11/16 07:02:15;;;;;;;42.00;20.80;;;;;;;17.18;45.71;100209.73;101375;1313;62805;-81
2022/11/16 07:04:41;;;;;;;41.10;21.00;;;;;;;17.19;45.74;100210.39;101100;1313;61390;-81
2022/11/16 07:07:07;;;;;;;43.70;21.00;;;;;;;17.19;45.87;100212.52;101250;1310;72449;-81
2022/11/16 07:09:34;;;;;;;42.00;21.80;;;;;;;17.19;45.87;100213.39;101314;1319;63507;-81
2022/11/16 07:12:00;;;;;;;43.10;21.30;;;;;;;17.19;46.04;100215.13;101078;1315;61357;-80
2022/11/16 07:14:26;;;;;;;43.90;21.50;;;;;;;17.20;46.06;100206.55;101416;1312;61739;-81
2022/11/16 07:16:51;;;;;;;41.70;21.90;;;;;;;17.22;46.01;100204.14;101328;1320;61318;-80
2022/11/16 07:19:18;;;;;;;44.50;22.30;;;;;;;17.23;46.03;100195.69;101430;1320;61412;-80
2022/11/16 07:21:44;;;;;;;45.70;23.30;;;;;;;17.26;46.01;100194.62;101439;1313;61392;-80
2022/11/16 07:24:09;;;;;;;37.70;21.50;;;;;;;17.28;46.03;100195.91;101598;1317;61450;-80
2022/11/16 07:26:35;;;;;;;50.30;22.90;;;;;;;17.30;46.09;100192.39;101524;1329;61517;-80
2022/11/16 07:29:00;;;;;;;46.60;22.80;;;;;;;17.31;45.92;100193.92;101596;1310;61336;-80
2022/11/16 07:31:26;;;;;;;40.80;22.40;;;;;;;17.33;46.00;100196.15;101216;1320;61377;-80
2022/11/16 07:33:52;;;;;;;40.10;22.20;;;;;;;17.34;46.04;100193.60;101453;1309;61857;-80
2022/11/16 07:36:19;;;;;;;39.70;21.70;;;;;;;17.35;46.06;100190.33;101431;1317;61412;-80
2022/11/16 07:38:46;;;;;;;41.70;21.50;;;;;;;17.36;46.15;100190.75;101329;1312;61320;-80
2022/11/16 07:41:13;;;;;;;43.70;21.60;;;;;;;17.38;45.91;100190.30;101380;1316;61379;-79
2022/11/16 07:43:39;;;;;;;48.80;21.60;;;;;;;17.38;46.02;100189.00;101449;1320;61538;-80
2022/11/16 07:46:16;;;;;;;48.80;22.10;;;;;;;17.40;46.07;100184.48;101253;1312;61256;-80
2022/11/16 07:48:42;;;;;;;50.40;23.00;;;;;;;17.41;46.32;100188.13;102723;1317;73611;-80
2022/11/16 07:51:09;;;;;;;47.20;23.30;;;;;;;17.43;46.36;100188.17;102792;1320;60685;-81
2022/11/16 07:53:36;;;;;;;61.60;25.90;;;;;;;17.43;46.39;100184.61;102646;1325;61249;-80
2022/11/16 07:56:01;;;;;;;54.40;23.10;;;;;;;17.41;46.32;100186.20;102631;1320;59335;-81
2022/11/16 07:58:29;;;;;;;51.70;26.50;;;;;;;17.39;46.58;100184.90;102839;1315;59338;-81
2022/11/16 08:01:03;;;;;;;55.70;26.50;;;;;;;17.38;46.67;100182.83;102754;1318;74455;-82
2022/11/16 08:03:30;;;;;;;50.70;25.50;;;;;;;17.34;46.69;100177.35;102729;1313;61304;-81
2022/11/16 08:06:06;;;;;;;57.00;24.50;;;;;;;17.31;46.56;100179.86;102709;1310;61203;-81
2022/11/16 08:08:32;;;;;;;53.50;25.80;;;;;;;17.28;46.75;100179.90;102832;1320;73792;-81
2022/11/16 08:11:05;;;;;;;60.40;27.00;;;;;;;17.21;46.78;100179.10;102757;1319;58792;-82
2022/11/16 08:13:33;;;;;;;66.40;25.40;;;;;;;17.13;46.72;100180.15;102664;1312;61043;-82
2022/11/16 08:16:02;;;;;;;48.90;23.80;;;;;;;17.12;46.88;100176.70;102705;1315;60709;-82
2022/11/16 08:18:29;;;;;;;59.90;23.90;;;;;;;17.15;46.80;100180.92;102639;1318;72536;-82
2022/11/16 08:20:54;;;;;;;52.70;24.40;;;;;;;17.19;47.18;100178.02;102655;1319;59328;-82
2022/11/16 08:23:20;;;;;;;49.00;23.40;;;;;;;17.22;47.05;100169.78;102692;1320;59072;-82
2022/11/16 08:25:45;;;;;;;48.70;22.90;;;;;;;17.27;47.13;100173.40;102744;1319;59018;-82
2022/11/16 08:28:13;;;;;;;50.50;22.90;;;;;;;17.31;47.23;100171.39;101343;1315;61420;-81
2022/11/16 08:30:39;;;;;;;49.80;23.20;;;;;;;17.33;47.08;100164.64;101020;1321;61384;-81
2022/11/16 08:33:06;;;;;;;54.40;22.80;;;;;;;17.35;47.38;100166.09;101040;1315;61729;-81
2022/11/16 08:35:33;;;;;;;53.30;23.20;;;;;;;17.37;47.26;100166.30;101194;1320;61330;-80
2022/11/16 08:37:58;;;;;;;53.70;23.20;;;;;;;17.39;47.33;100159.80;101038;1315;61305;-80
2022/11/16 08:40:24;;;;;;;46.60;22.30;;;;;;;17.40;47.24;100159.53;101024;1314;61410;-81
2022/11/16 08:42:51;;;;;;;49.60;23.40;;;;;;;17.41;47.36;100159.98;101037;1318;61333;-81
2022/11/16 08:45:17;;;;;;;49.20;22.00;;;;;;;17.42;47.27;100159.92;102637;1318;60344;-81
2022/11/16 08:47:44;;;;;;;50.10;22.20;;;;;;;17.43;47.42;100158.27;102671;1320;60687;-81
2022/11/16 08:50:09;;;;;;;45.30;23.00;;;;;;;17.45;47.47;100160.52;101728;1312;61380;-81
2022/11/16 08:52:35;;;;;;;43.20;21.90;;;;;;;17.45;47.42;100159.74;101183;1312;61311;-81
2022/11/16 08:55:01;;;;;;;46.50;22.50;;;;;;;17.47;47.46;100153.42;101007;1320;61347;-80
2022/11/16 08:57:26;;;;;;;45.30;23.20;;;;;;;17.48;47.41;100147.50;101056;1314;61420;-81
2022/11/16 08:59:52;;;;;;;47.10;23.70;;;;;;;17.48;47.38;100154.23;101043;1312;61452;-81
2022/11/16 09:02:24;;;;;;;56.00;28.50;;;;;;;17.47;47.42;100151.10;100897;1322;61393;-81
2022/11/16 09:04:51;;;;;;;58.00;26.70;;;;;;;17.39;47.21;100142.92;102655;1315;61246;-81
2022/11/16 09:07:17;;;;;;;69.00;28.30;;;;;;;17.30;47.26;100145.11;102833;1313;60321;-81
2022/11/16 09:09:42;;;;;;;69.20;32.20;;;;;;;17.24;47.39;100139.80;102782;1315;59379;-81
2022/11/16 09:12:09;;;;;;;60.50;28.00;;;;;;;17.10;47.10;100136.96;102753;1320;60016;-81
2022/11/16 09:14:34;;;;;;;54.00;27.30;;;;;;;17.04;47.36;100140.90;102776;1323;60409;-81
2022/11/16 09:17:00;;;;;;;62.30;32.00;;;;;;;17.04;47.53;100132.15;101700;1315;61317;-81
2022/11/16 09:19:26;;;;;;;53.80;26.40;;;;;;;17.04;47.41;100128.46;101218;1315;63882;-81
2022/11/16 09:21:51;;;;;;;55.50;27.10;;;;;;;17.03;47.34;100131.23;101421;1313;72417;-82
2022/11/16 09:24:17;;;;;;;46.10;23.60;;;;;;;17.03;47.43;100124.44;101244;1316;61452;-80
2022/11/16 09:26:42;;;;;;;50.70;25.50;;;;;;;17.05;47.44;100117.17;101326;1320;61341;-80
2022/11/16 09:29:11;;;;;;;57.10;25.90;;;;;;;17.07;47.57;100113.48;101458;1317;61392;-82
2022/11/16 09:31:37;;;;;;;55.90;28.60;;;;;;;17.09;47.55;100110.70;101403;1320;64723;-82
2022/11/16 09:34:03;;;;;;;55.60;27.00;;;;;;;17.11;47.61;100108.30;101328;1320;62228;-82
2022/11/16 09:36:29;;;;;;;52.40;26.50;;;;;;;17.11;47.65;100102.57;101444;1315;61323;-83
2022/11/16 09:38:55;;;;;;;54.70;28.80;;;;;;;17.12;47.49;100102.67;101393;1318;61669;-81
2022/11/16 09:41:37;;;;;;;57.60;27.90;;;;;;;17.13;47.55;100094.99;101323;1326;61320;-81
2022/11/16 09:44:06;;;;;;;57.20;29.00;;;;;;;17.13;47.57;100092.68;101302;1318;75619;-83
2022/11/16 09:46:41;;;;;;;54.50;28.40;;;;;;;17.14;47.53;100089.42;101337;1323;61427;-81
2022/11/16 09:49:18;;;;;;;54.10;29.00;;;;;;;17.14;47.47;100087.29;101332;1315;61491;-81
2022/11/16 09:51:46;;;;;;;52.60;27.10;;;;;;;17.15;47.48;100083.85;101819;1320;72617;-81
2022/11/16 09:54:13;;;;;;;49.80;27.80;;;;;;;17.16;47.37;100077.70;101294;1319;75740;-80
2022/11/16 09:56:40;;;;;;;54.30;27.70;;;;;;;17.17;47.44;100074.48;101306;1318;61357;-80
2022/11/16 09:59:11;;;;;;;63.30;28.80;;;;;;;17.17;47.50;100070.72;101964;1313;61370;-80
2022/11/16 10:01:45;;;;;;;57.50;29.70;;;;;;;17.18;47.47;100068.34;101353;1313;73680;-81
2022/11/16 10:04:19;;;;;;;57.80;25.60;;;;;;;17.15;47.48;100066.63;101139;1312;74553;-81
2022/11/16 10:07:00;;;;;;;61.00;27.50;;;;;;;17.17;47.98;100057.02;101009;1312;62337;-80
2022/11/16 10:09:25;;;;;;;56.20;27.90;;;;;;;17.13;47.85;100053.90;101070;1319;61500;-81
2022/11/16 10:12:00;;;;;;;61.50;28.40;;;;;;;17.05;47.87;100052.31;101117;1316;61268;-80
2022/11/16 10:15:00;;;;;;;60.50;27.90;;;;;;;17.03;47.97;100050.84;101097;1315;75341;-80
2022/11/16 10:17:48;;;;;;;66.80;29.80;;;;;;;17.03;48.11;100044.60;101289;1315;61389;-81
2022/11/16 10:20:32;;;;;;;66.70;30.30;;;;;;;17.03;48.02;100045.83;101366;1312;61371;-81
2022/11/16 10:23:29;;;;;;;67.80;31.10;;;;;;;17.02;47.89;100042.54;101304;1316;72509;-80
2022/11/16 10:26:19;;;;;;;62.20;29.00;;;;;;;16.99;47.80;100037.08;101316;1314;75781;-81
2022/11/16 10:28:52;;;;;;;61.60;30.50;;;;;;;16.98;47.82;100034.45;101194;1315;61523;-81
2022/11/16 10:31:56;;;;;;;60.00;29.50;;;;;;;16.96;47.56;100030.48;101188;1320;61325;-81
2022/11/16 10:34:27;;;;;;;63.00;30.70;;;;;;;16.97;47.68;100024.73;100647;1322;72730;-81
2022/11/16 10:36:59;;;;;;;57.80;29.20;;;;;;;16.99;47.68;100021.75;100758;1327;75609;-81
2022/11/16 10:39:24;;;;;;;59.00;30.90;;;;;;;16.97;47.59;100019.81;100947;1321;61834;-80
2022/11/16 10:41:50;;;;;;;56.90;29.60;;;;;;;16.96;47.50;100020.93;100836;1328;61458;-80
2022/11/16 10:44:31;;;;;;;64.70;29.70;;;;;;;16.97;47.50;100006.98;101064;1328;61419;-80
2022/11/16 10:47:01;;;;;;;58.30;28.50;;;;;;;16.99;47.62;100001.13;100932;1328;74669;-80
2022/11/16 10:49:33;;;;;;;59.80;29.70;;;;;;;17.01;47.53;99996.61;101334;1331;61369;-82
2022/11/16 10:51:58;;;;;;;63.20;30.90;;;;;;;17.01;47.45;100001.58;100901;1321;61367;-81
2022/11/16 10:54:24;;;;;;;63.10;31.00;;;;;;;17.01;47.44;100004.39;100851;1328;61360;-81
2022/11/16 10:57:02;;;;;;;62.70;29.80;;;;;;;17.03;47.41;100004.46;100959;1327;61384;-81
2022/11/16 10:59:38;;;;;;;66.40;31.70;;;;;;;17.04;47.46;100001.70;100931;1329;61260;-81
2022/11/16 11:02:31;;;;;;;70.50;32.20;;;;;;;17.00;47.26;99996.80;101416;1328;61377;-81
2022/11/16 11:05:16;;;;;;;77.00;33.90;;;;;;;16.90;47.32;99990.70;100575;1321;71422;-81
2022/11/16 11:08:06;;;;;;;75.60;32.00;;;;;;;16.88;47.41;99987.11;100785;1328;75303;-80
2022/11/16 11:10:36;;;;;;;80.80;32.70;;;;;;;16.90;47.33;99986.42;100828;1317;61309;-82
2022/11/16 11:13:05;;;;;;;86.10;32.70;;;;;;;16.92;47.51;99983.66;101130;1317;61242;-82
2022/11/16 11:15:31;;;;;;;58.40;28.10;;;;;;;16.92;47.44;99979.40;101307;1314;72769;-81
2022/11/16 11:18:17;;;;;;;78.70;31.80;;;;;;;16.95;47.48;99982.80;101311;1315;63079;-82
2022/11/16 11:20:46;;;;;;;72.40;32.30;;;;;;;16.96;47.64;99978.05;101438;1320;61427;-81
2022/11/16 11:23:17;;;;;;;67.60;30.60;;;;;;;16.98;47.57;99971.88;101338;1316;61861;-81
2022/11/16 11:25:53;;;;;;;61.60;28.80;;;;;;;17.00;47.53;99973.15;101344;1326;72676;-81
2022/11/16 11:28:18;;;;;;;64.30;29.60;;;;;;;17.04;47.64;99967.77;102584;1320;73412;-81
2022/11/16 11:31:00;;;;;;;65.90;31.30;;;;;;;17.06;47.72;99959.95;101456;1313;62022;-81
2022/11/16 11:33:42;;;;;;;61.20;29.90;;;;;;;17.10;47.84;99956.89;101451;1310;61212;-80
2022/11/16 11:36:17;;;;;;;68.20;29.40;;;;;;;17.09;47.96;99952.98;101282;1311;72528;-81
2022/11/16 11:39:20;;;;;;;61.40;28.30;;;;;;;17.09;48.06;99953.39;101442;1313;75525;-81
2022/11/16 11:41:59;;;;;;;67.40;29.00;;;;;;;17.10;48.18;99951.73;101310;1320;61353;-81
2022/11/16 11:44:30;;;;;;;;;;;;;;;17.08;48.13;99951.48;101498;1319;61741;-82
2022/11/16 11:47:00;;;;;;;61.20;27.40;;;;;;;17.03;48.26;99947.90;101403;1317;73652;-81
2022/11/16 11:49:34;;;;;;;56.00;26.00;;;;;;;17.05;48.26;99944.89;101452;1312;74448;-81
2022/11/16 11:52:08;;;;;;;65.30;28.70;;;;;;;17.07;48.36;99939.09;101798;1318;61255;-80
2022/11/16 11:54:41;;;;;;;59.90;27.30;;;;;;;17.08;48.55;99931.18;101831;1319;61132;-81